createdAt,value
2017-09-05T00:01:50.995Z,101478.66
2017-09-05T00:04:19.393Z,101476.69
2017-09-05T00:06:47.877Z,101475.56
2017-09-05T00:09:18.137Z,101473.30
2017-09-05T00:11:52.646Z,101475.88
2017-09-05T00:14:37.870Z,101475.53
2017-09-05T00:20:12.207Z,101468.25
2017-09-05T00:22:40.899Z,101465.08
2017-09-05T00:25:09.455Z,101467.33
2017-09-05T00:27:37.912Z,101463.30
2017-09-05T00:30:06.355Z,101468.63
2017-09-05T00:32:34.761Z,101469.38
2017-09-05T00:35:03.160Z,101472.70
2017-09-05T00:37:31.606Z,101472.85
2017-09-05T00:40:00.097Z,101466.42
2017-09-05T00:42:28.547Z,101471.43
2017-09-05T00:44:56.998Z,101483.48
2017-09-05T00:47:25.410Z,101484.05
2017-09-05T00:49:53.944Z,101479.45
2017-09-05T00:52:22.383Z,101479.70
2017-09-05T00:54:51.013Z,101475.89
2017-09-05T00:57:19.392Z,101477.97
2017-09-05T00:59:47.820Z,101473.43
2017-09-05T01:02:16.273Z,101469.28
2017-09-05T01:04:44.918Z,101478.95
2017-09-05T01:07:13.403Z,101469.73
2017-09-05T01:09:41.814Z,101468.92
2017-09-05T01:12:15.665Z,101472.05
2017-09-05T01:14:44.152Z,101463.30
2017-09-05T01:17:12.623Z,101470.61
2017-09-05T01:19:41.124Z,101463.87
2017-09-05T01:22:09.536Z,101464.12
2017-09-05T01:24:37.984Z,101460.24
2017-09-05T01:27:06.498Z,101459.47
2017-09-05T01:29:34.942Z,101458.48
2017-09-05T01:32:03.361Z,101460.33
2017-09-05T01:34:31.759Z,101458.65
2017-09-05T01:37:00.190Z,101458.34
2017-09-05T01:39:28.692Z,101454.41
2017-09-05T01:41:57.119Z,101454.34
2017-09-05T01:44:25.511Z,101454.25
2017-09-05T01:46:53.945Z,101452.05
2017-09-05T01:49:22.329Z,101443.72
2017-09-05T01:51:50.775Z,101441.47
2017-09-05T01:54:19.209Z,101440.91
2017-09-05T01:56:47.613Z,101442.05
2017-09-05T01:59:16.015Z,101439.33
2017-09-05T02:01:44.456Z,101433.30
2017-09-05T02:04:12.846Z,101431.62
2017-09-05T02:06:41.256Z,101431.66
2017-09-05T02:09:09.681Z,101432.78
2017-09-05T02:11:38.093Z,101436.56
2017-09-05T02:14:06.545Z,101432.94
2017-09-05T02:16:35.006Z,101426.70
2017-09-05T02:19:03.435Z,101424.34
2017-09-05T02:21:31.856Z,101426.55
2017-09-05T02:24:00.304Z,101421.27
2017-09-05T02:26:28.705Z,101419.94
2017-09-05T02:28:57.104Z,101423.16
2017-09-05T02:31:25.571Z,101426.19
2017-09-05T02:33:53.955Z,101430.37
2017-09-05T02:36:22.349Z,101421.59
2017-09-05T02:38:50.799Z,101420.22
2017-09-05T02:41:19.248Z,101419.28
2017-09-05T02:43:47.649Z,101427.97
2017-09-05T02:46:16.139Z,101420.92
2017-09-05T02:48:44.527Z,101425.78
2017-09-05T02:51:12.968Z,101426.55
2017-09-05T02:53:41.447Z,101420.63
2017-09-05T02:56:09.860Z,101425.50
2017-09-05T02:58:38.246Z,101424.38
2017-09-05T03:01:06.694Z,101426.17
2017-09-05T03:03:35.134Z,101425.00
2017-09-05T03:06:03.643Z,101429.31
2017-09-05T03:08:32.108Z,101429.77
2017-09-05T03:11:00.573Z,101431.66
2017-09-05T03:13:29.003Z,101432.31
2017-09-05T03:15:57.458Z,101432.12
2017-09-05T03:18:25.958Z,101433.73
2017-09-05T03:20:54.374Z,101433.77
2017-09-05T03:23:22.782Z,101425.09
2017-09-05T03:25:51.177Z,101431.03
2017-09-05T03:28:19.612Z,101430.94
2017-09-05T03:30:48.091Z,101428.49
2017-09-05T03:33:16.623Z,101428.27
2017-09-05T03:35:45.080Z,101433.19
2017-09-05T03:38:13.504Z,101432.72
2017-09-05T03:40:41.913Z,101431.95
2017-09-05T03:43:10.329Z,101434.89
2017-09-05T03:45:38.759Z,101436.75
2017-09-05T03:48:07.202Z,101437.27
2017-09-05T03:50:35.596Z,101429.97
2017-09-05T03:53:04.040Z,101436.55
2017-09-05T03:55:32.486Z,101428.38
2017-09-05T03:58:00.885Z,101429.41
2017-09-05T04:00:29.320Z,101425.86
2017-09-05T04:02:57.767Z,101426.39
2017-09-05T04:05:26.168Z,101427.26
2017-09-05T04:07:54.615Z,101427.50
2017-09-05T04:10:23.113Z,101431.38
2017-09-05T04:12:51.518Z,101435.77
2017-09-05T04:15:19.987Z,101432.75
2017-09-05T04:17:48.495Z,101424.69
2017-09-05T04:20:16.993Z,101428.98
2017-09-05T04:22:45.492Z,101425.70
2017-09-05T04:25:14.177Z,101417.38
2017-09-05T04:27:42.607Z,101423.11
2017-09-05T04:30:11.004Z,101423.60
2017-09-05T04:32:39.452Z,101417.78
2017-09-05T04:35:07.850Z,101423.11
2017-09-05T04:37:36.327Z,101414.88
2017-09-05T04:40:04.751Z,101424.84
2017-09-05T04:42:33.188Z,101422.66
2017-09-05T04:45:01.693Z,101416.97
2017-09-05T04:47:30.228Z,101417.59
2017-09-05T04:49:58.627Z,101422.91
2017-09-05T04:52:27.062Z,101419.22
2017-09-05T04:54:55.468Z,101423.98
2017-09-05T04:57:23.949Z,101419.58
2017-09-05T04:59:52.501Z,101412.34
2017-09-05T05:02:21.015Z,101411.70
2017-09-05T05:04:49.462Z,101415.45
2017-09-05T05:07:17.887Z,101416.16
2017-09-05T05:09:46.327Z,101421.27
2017-09-05T05:12:14.842Z,101420.70
2017-09-05T05:14:43.305Z,101429.39
2017-09-05T05:17:13.782Z,101428.42
2017-09-05T05:19:42.242Z,101435.54
2017-09-05T05:22:10.657Z,101437.06
2017-09-05T05:24:39.071Z,101430.06
2017-09-05T05:27:07.521Z,101434.45
2017-09-05T05:29:36.070Z,101436.80
2017-09-05T05:32:04.483Z,101435.53
2017-09-05T05:34:33.043Z,101422.86
2017-09-05T05:37:01.567Z,101432.74
2017-09-05T05:39:30.064Z,101433.40
2017-09-05T05:41:58.711Z,101419.59
2017-09-05T05:44:27.136Z,101430.53
2017-09-05T05:46:55.542Z,101431.61
2017-09-05T05:49:23.969Z,101429.22
2017-09-05T05:51:52.568Z,101425.73
2017-09-05T05:54:21.025Z,101425.78
2017-09-05T05:56:49.472Z,101425.52
2017-09-05T05:59:18.868Z,101429.52
2017-09-05T06:01:47.296Z,101434.72
2017-09-05T06:04:15.733Z,101436.08
2017-09-05T06:06:44.136Z,101430.78
2017-09-05T06:09:12.642Z,101437.69
2017-09-05T06:11:41.105Z,101438.37
2017-09-05T06:14:09.568Z,101437.27
2017-09-05T06:16:38.010Z,101441.19
2017-09-05T06:19:06.430Z,101436.26
2017-09-05T06:21:34.889Z,101432.95
2017-09-05T06:24:03.327Z,101439.05
2017-09-05T06:26:32.777Z,101436.30
2017-09-05T06:29:01.180Z,101433.84
2017-09-05T06:31:29.608Z,101429.55
2017-09-05T06:33:58.102Z,101420.07
2017-09-05T06:36:26.569Z,101424.44
2017-09-05T06:38:55.011Z,101423.95
2017-09-05T06:41:23.424Z,101427.08
2017-09-05T06:43:51.900Z,101426.40
2017-09-05T06:46:20.387Z,101427.40
2017-09-05T06:48:48.824Z,101431.31
2017-09-05T06:51:17.235Z,101421.42
2017-09-05T06:53:45.656Z,101425.40
2017-09-05T06:56:14.244Z,101428.25
2017-09-05T06:58:42.638Z,101434.94
2017-09-05T07:01:11.139Z,101436.54
2017-09-05T07:03:39.638Z,101433.64
2017-09-05T07:06:08.028Z,101435.70
2017-09-05T07:08:36.462Z,101435.02
2017-09-05T07:11:04.896Z,101432.28
2017-09-05T07:13:33.373Z,101432.35
2017-09-05T07:16:01.834Z,101428.47
2017-09-05T07:18:30.263Z,101436.00
2017-09-05T07:20:58.712Z,101434.95
2017-09-05T07:23:27.164Z,101433.37
2017-09-05T07:25:55.723Z,101432.36
2017-09-05T07:28:25.200Z,101430.33
2017-09-05T07:30:53.695Z,101423.53
2017-09-05T07:33:22.134Z,101425.10
2017-09-05T07:35:50.564Z,101417.48
2017-09-05T07:38:19.025Z,101429.31
2017-09-05T07:40:47.493Z,101423.03
2017-09-05T07:43:16.003Z,101425.45
2017-09-05T07:45:44.436Z,101422.73
2017-09-05T07:48:12.838Z,101419.99
2017-09-05T07:50:41.336Z,101420.28
2017-09-05T07:53:09.820Z,101417.58
2017-09-05T07:55:39.209Z,101418.55
2017-09-05T07:58:07.743Z,101421.03
2017-09-05T08:00:36.181Z,101409.05
2017-09-05T08:03:04.576Z,101419.11
2017-09-05T08:05:33.021Z,101426.22
2017-09-05T08:08:01.538Z,101412.83
2017-09-05T08:10:29.941Z,101408.02
2017-09-05T08:12:58.353Z,101406.22
2017-09-05T08:15:26.803Z,101405.72
2017-09-05T08:17:55.248Z,101401.38
2017-09-05T08:20:23.639Z,101403.45
2017-09-05T08:22:52.141Z,101405.44
2017-09-05T08:25:20.548Z,101413.25
2017-09-05T08:27:48.946Z,101410.20
2017-09-05T08:30:17.495Z,101405.17
2017-09-05T08:32:45.914Z,101407.52
2017-09-05T08:35:14.350Z,101396.67
2017-09-05T08:37:42.769Z,101410.81
2017-09-05T08:40:11.175Z,101409.72
2017-09-05T08:42:39.605Z,101404.67
2017-09-05T08:45:08.366Z,101405.67
2017-09-05T08:47:36.822Z,101395.58
2017-09-05T08:50:05.229Z,101406.46
2017-09-05T08:52:33.646Z,101400.28
2017-09-05T08:55:02.052Z,101400.25
2017-09-05T08:57:30.508Z,101388.01
2017-09-05T08:59:58.949Z,101395.55
2017-09-05T09:02:27.339Z,101395.99
2017-09-05T09:04:55.752Z,101407.86
2017-09-05T09:07:24.257Z,101393.67
2017-09-05T09:09:52.792Z,101392.66
2017-09-05T09:12:21.284Z,101402.18
2017-09-05T09:14:49.691Z,101394.38
2017-09-05T09:17:18.084Z,101385.24
2017-09-05T09:19:46.511Z,101387.95
2017-09-05T09:22:14.935Z,101388.88
2017-09-05T09:24:43.327Z,101383.11
2017-09-05T09:27:11.752Z,101379.17
2017-09-05T09:29:40.156Z,101377.24
2017-09-05T09:32:08.571Z,101379.63
2017-09-05T09:34:37.177Z,101375.01
2017-09-05T09:37:05.642Z,101380.09
2017-09-05T09:39:34.036Z,101374.42
2017-09-05T09:42:02.469Z,101375.78
2017-09-05T09:44:30.871Z,101374.03
2017-09-05T09:46:59.276Z,101367.61
2017-09-05T09:49:27.768Z,101371.31
2017-09-05T09:51:56.215Z,101371.45
2017-09-05T09:54:24.634Z,101368.86
2017-09-05T09:56:53.094Z,101361.31
2017-09-05T09:59:21.555Z,101361.95
2017-09-05T10:01:50.017Z,101358.56
2017-09-05T10:04:18.444Z,101355.35
2017-09-05T10:06:46.880Z,101354.73
2017-09-05T10:09:15.289Z,101356.91
2017-09-05T10:11:43.833Z,101356.70
2017-09-05T10:14:12.276Z,101360.52
2017-09-05T10:16:40.670Z,101365.09
2017-09-05T10:19:09.109Z,101356.91
2017-09-05T10:21:37.558Z,101354.00
2017-09-05T10:24:06.066Z,101352.83
2017-09-05T10:26:34.555Z,101346.10
2017-09-05T10:29:02.964Z,101343.47
2017-09-05T10:31:31.361Z,101344.89
2017-09-05T10:33:59.768Z,101344.00
2017-09-05T10:36:28.233Z,101342.74
2017-09-05T10:38:56.680Z,101330.80
2017-09-05T10:41:25.099Z,101341.06
2017-09-05T10:43:53.510Z,101332.23
2017-09-05T10:46:22.002Z,101335.48
2017-09-05T10:48:50.430Z,101324.92
2017-09-05T10:51:18.872Z,101329.02
2017-09-05T10:53:47.312Z,101337.92
2017-09-05T10:56:15.698Z,101331.50
2017-09-05T10:58:44.118Z,101328.94
2017-09-05T11:01:12.565Z,101333.39
2017-09-05T11:03:41.016Z,101328.80
2017-09-05T11:06:09.413Z,101330.66
2017-09-05T11:08:37.856Z,101338.41
2017-09-05T11:11:06.343Z,101334.27
2017-09-05T11:13:34.873Z,101335.34
2017-09-05T11:16:03.324Z,101334.30
2017-09-05T11:18:31.731Z,101331.35
2017-09-05T11:21:00.163Z,101336.05
2017-09-05T11:23:28.555Z,101337.02
2017-09-05T11:25:56.962Z,101338.97
2017-09-05T11:28:25.512Z,101334.28
2017-09-05T11:30:53.907Z,101334.06
2017-09-05T11:33:22.320Z,101336.06
2017-09-05T11:35:50.713Z,101340.97
2017-09-05T11:38:19.220Z,101330.73
2017-09-05T11:40:47.647Z,101333.50
2017-09-05T11:43:16.189Z,101340.29
2017-09-05T11:45:44.645Z,101340.44
2017-09-05T11:48:13.073Z,101341.36
2017-09-05T11:50:41.697Z,101331.34
2017-09-05T11:53:10.222Z,101333.13
2017-09-05T11:55:38.658Z,101340.57
2017-09-05T11:58:07.060Z,101335.91
2017-09-05T12:00:35.515Z,101334.94
2017-09-05T12:03:03.955Z,101339.50
2017-09-05T12:05:32.434Z,101335.77
2017-09-05T12:08:00.912Z,101336.72
2017-09-05T12:10:29.368Z,101331.48
2017-09-05T12:12:57.772Z,101337.60
2017-09-05T12:15:26.187Z,101338.16
2017-09-05T12:17:54.620Z,101340.75
2017-09-05T12:20:23.090Z,101333.63
2017-09-05T12:22:51.560Z,101326.41
2017-09-05T12:25:20.010Z,101323.12
2017-09-05T12:27:48.454Z,101326.20
2017-09-05T12:30:17.017Z,101329.23
2017-09-05T12:32:45.469Z,101328.41
2017-09-05T12:35:13.953Z,101322.86
2017-09-05T12:37:42.425Z,101315.61
2017-09-05T12:40:10.861Z,101321.63
2017-09-05T12:42:39.377Z,101319.48
2017-09-05T12:45:07.831Z,101322.33
2017-09-05T12:47:36.223Z,101322.14
2017-09-05T12:50:04.643Z,101322.55
2017-09-05T12:52:33.074Z,101317.48
2017-09-05T12:55:01.514Z,101314.52
2017-09-05T12:57:29.914Z,101315.97
2017-09-05T12:59:58.298Z,101316.36
2017-09-05T13:02:26.735Z,101303.77
2017-09-05T13:04:55.147Z,101300.71
2017-09-05T13:07:23.565Z,101298.84
2017-09-05T13:09:52.172Z,101303.45
2017-09-05T13:12:20.551Z,101301.43
2017-09-05T13:14:48.989Z,101293.66
2017-09-05T13:17:17.411Z,101291.69
2017-09-05T13:19:45.907Z,101291.55
2017-09-05T13:22:15.230Z,101289.31
2017-09-05T13:24:43.760Z,101291.89
2017-09-05T13:27:12.289Z,101293.03
2017-09-05T13:29:40.674Z,101285.84
2017-09-05T13:32:09.110Z,101287.55
2017-09-05T13:34:37.544Z,101271.44
2017-09-05T13:37:06.019Z,101273.86
2017-09-05T13:39:34.492Z,101274.42
2017-09-05T13:42:02.925Z,101272.41
2017-09-05T13:44:31.337Z,101260.78
2017-09-05T13:46:59.819Z,101262.66
2017-09-05T13:52:03.013Z,101253.80
2017-09-05T13:54:31.422Z,101254.23
2017-09-05T13:56:59.957Z,101246.75
2017-09-05T13:59:28.412Z,101247.83
2017-09-05T14:01:56.813Z,101247.06
2017-09-05T14:04:25.316Z,101235.17
2017-09-05T14:06:53.713Z,101236.28
2017-09-05T14:09:22.108Z,101237.41
2017-09-05T14:11:50.601Z,101237.84
2017-09-05T14:14:19.072Z,101232.19
2017-09-05T14:16:47.472Z,101231.30
2017-09-05T14:19:15.912Z,101222.45
2017-09-05T14:21:44.374Z,101217.06
2017-09-05T14:24:12.929Z,101214.13
2017-09-05T14:26:41.412Z,101212.81
2017-09-05T14:29:09.827Z,101208.31
2017-09-05T14:31:38.307Z,101207.57
2017-09-05T14:34:06.732Z,101197.87
2017-09-05T14:36:35.207Z,101205.66
2017-09-05T14:39:03.758Z,101208.89
2017-09-05T14:41:32.228Z,101203.88
2017-09-05T14:44:00.660Z,101203.42
2017-09-05T14:46:29.168Z,101207.11
2017-09-05T14:48:57.662Z,101202.52
2017-09-05T14:51:26.245Z,101192.89
2017-09-05T14:53:54.726Z,101197.52
2017-09-05T14:56:23.154Z,101191.84
2017-09-05T14:58:51.939Z,101198.36
2017-09-05T15:01:20.536Z,101184.90
2017-09-05T15:03:48.976Z,101187.96
2017-09-05T15:06:17.495Z,101182.77
2017-09-05T15:08:45.892Z,101187.56
2017-09-05T15:11:14.335Z,101187.24
2017-09-05T15:13:42.809Z,101195.34
2017-09-05T15:16:11.217Z,101194.60
2017-09-05T15:18:39.696Z,101194.61
2017-09-05T15:21:08.224Z,101199.20
2017-09-05T15:23:36.617Z,101200.48
2017-09-05T15:26:05.060Z,101200.35
2017-09-05T15:28:33.702Z,101185.69
2017-09-05T15:31:02.451Z,101189.22
2017-09-05T15:33:30.859Z,101188.17
2017-09-05T15:35:59.810Z,101193.28
2017-09-05T15:38:28.305Z,101186.69
2017-09-05T15:40:56.741Z,101185.97
2017-09-05T15:43:25.180Z,101179.91
2017-09-05T15:45:53.726Z,101179.98
2017-09-05T15:48:22.202Z,101180.06
2017-09-05T15:50:50.605Z,101184.64
2017-09-05T15:53:19.031Z,101193.08
2017-09-05T15:55:47.527Z,101184.52
2017-09-05T15:58:16.001Z,101187.83
2017-09-05T16:00:44.427Z,101189.56
2017-09-05T16:03:12.889Z,101185.33
2017-09-05T16:05:41.320Z,101191.59
2017-09-05T16:08:09.809Z,101194.69
2017-09-05T16:10:38.205Z,101189.34
2017-09-05T16:13:06.708Z,101197.21
2017-09-05T16:15:35.131Z,101203.55
2017-09-05T16:18:03.553Z,101190.48
2017-09-05T16:20:32.844Z,101200.18
2017-09-05T16:23:01.327Z,101199.09
2017-09-05T16:25:30.589Z,101210.08
2017-09-05T16:27:59.029Z,101199.99
2017-09-05T16:30:27.429Z,101205.00
2017-09-05T16:32:55.832Z,101192.48
2017-09-05T16:35:24.317Z,101190.50
2017-09-05T16:37:52.715Z,101192.11
2017-09-05T16:40:21.304Z,101192.08
2017-09-05T16:42:49.743Z,101196.47
2017-09-05T16:45:18.241Z,101190.09
2017-09-05T16:47:46.747Z,101193.69
2017-09-05T16:50:15.204Z,101185.27
2017-09-05T16:52:43.682Z,101183.00
2017-09-05T16:55:12.141Z,101181.78
2017-09-05T16:57:40.679Z,101184.76
2017-09-05T17:00:09.063Z,101189.55
2017-09-05T17:02:37.629Z,101184.09
2017-09-05T17:05:06.073Z,101191.48
2017-09-05T17:07:34.513Z,101189.56
2017-09-05T17:10:02.972Z,101186.35
2017-09-05T17:12:31.394Z,101179.98
2017-09-05T17:14:59.798Z,101178.19
2017-09-05T17:17:28.205Z,101175.41
2017-09-05T17:19:56.637Z,101178.98
2017-09-05T17:22:25.054Z,101178.19
2017-09-05T17:24:53.518Z,101180.01
2017-09-05T17:27:22.158Z,101175.83
2017-09-05T17:29:51.704Z,101166.55
2017-09-05T17:32:20.106Z,101169.09
2017-09-05T17:34:48.492Z,101172.06
2017-09-05T17:37:18.081Z,101172.13
2017-09-05T17:39:46.505Z,101165.16
2017-09-05T17:42:15.060Z,101175.52
2017-09-05T17:44:43.524Z,101170.52
2017-09-05T17:47:12.239Z,101164.22
2017-09-05T17:49:41.277Z,101172.97
2017-09-05T17:52:10.099Z,101169.42
2017-09-05T17:54:38.677Z,101174.17
2017-09-05T17:57:07.358Z,101170.64
2017-09-05T17:59:36.203Z,101166.31
2017-09-05T18:02:04.660Z,101167.92
2017-09-05T18:04:33.179Z,101178.06
2017-09-05T18:07:01.748Z,101175.70
2017-09-05T18:09:31.271Z,101172.13
2017-09-05T18:11:59.787Z,101180.26
2017-09-05T18:14:28.195Z,101181.05
2017-09-05T18:16:56.646Z,101180.06
2017-09-05T18:19:25.048Z,101179.86
2017-09-05T18:21:53.477Z,101180.47
2017-09-05T18:24:21.916Z,101176.11
2017-09-05T18:26:50.843Z,101184.64
2017-09-05T18:29:19.412Z,101183.24
2017-09-05T18:31:48.384Z,101183.85
2017-09-05T18:34:16.803Z,101184.05
2017-09-05T18:36:47.442Z,101181.45
2017-09-05T18:39:15.997Z,101188.75
2017-09-05T18:41:44.860Z,101197.13
2017-09-05T18:44:13.346Z,101191.95
2017-09-05T18:46:41.731Z,101194.95
2017-09-05T18:49:11.374Z,101196.14
2017-09-05T18:51:39.791Z,101199.72
2017-09-05T18:54:08.342Z,101195.86
2017-09-05T18:56:36.877Z,101200.25
2017-09-05T18:59:05.367Z,101198.28
2017-09-05T19:01:33.935Z,101197.09
2017-09-05T19:04:02.425Z,101201.23
2017-09-05T19:06:30.836Z,101199.96
2017-09-05T19:08:59.258Z,101204.25
2017-09-05T19:11:27.754Z,101204.69
2017-09-05T19:13:56.208Z,101209.81
2017-09-05T19:16:24.632Z,101207.38
2017-09-05T19:18:53.052Z,101209.51
2017-09-05T19:21:21.540Z,101215.39
2017-09-05T19:23:50.087Z,101211.26
2017-09-05T19:26:18.597Z,101211.36
2017-09-05T19:28:47.146Z,101213.23
2017-09-05T19:31:15.537Z,101206.72
2017-09-05T19:33:43.958Z,101209.87
2017-09-05T19:36:16.555Z,101208.48
2017-09-05T19:38:45.009Z,101210.28
2017-09-05T19:41:13.402Z,101207.72
2017-09-05T19:43:41.933Z,101214.46
2017-09-05T19:46:10.660Z,101211.91
2017-09-05T19:48:39.170Z,101219.27
2017-09-05T19:51:07.590Z,101219.86
2017-09-05T19:53:35.973Z,101222.06
2017-09-05T19:56:04.468Z,101219.50
2017-09-05T19:58:33.009Z,101216.52
2017-09-05T20:01:01.547Z,101210.77
2017-09-05T20:03:30.034Z,101212.39
2017-09-05T20:05:58.428Z,101210.81
2017-09-05T20:08:26.817Z,101212.20
2017-09-05T20:10:55.222Z,101216.77
2017-09-05T20:13:23.657Z,101213.98
2017-09-05T20:15:52.103Z,101212.21
2017-09-05T20:18:20.507Z,101214.98
2017-09-05T20:20:48.979Z,101218.37
2017-09-05T20:23:17.547Z,101215.57
2017-09-05T20:25:46.135Z,101215.98
2017-09-05T20:28:14.532Z,101219.95
2017-09-05T20:30:42.946Z,101216.79
2017-09-05T20:33:11.366Z,101224.13
2017-09-05T20:35:39.801Z,101223.13
2017-09-05T20:38:08.446Z,101220.75
2017-09-05T20:40:37.142Z,101224.10
2017-09-05T20:43:05.668Z,101224.69
2017-09-05T20:45:34.290Z,101227.03
2017-09-05T20:48:02.944Z,101222.48
2017-09-05T20:50:31.419Z,101221.08
2017-09-05T20:53:00.236Z,101223.64
2017-09-05T20:55:28.856Z,101223.04
2017-09-05T20:57:57.480Z,101224.41
2017-09-05T21:00:25.902Z,101227.61
2017-09-05T21:02:54.278Z,101219.26
2017-09-05T21:05:22.686Z,101211.53
2017-09-05T21:07:51.103Z,101220.86
2017-09-05T21:10:19.529Z,101209.16
2017-09-05T21:12:47.928Z,101211.52
2017-09-05T21:15:16.414Z,101214.27
2017-09-05T21:17:44.864Z,101217.45
2017-09-05T21:20:13.434Z,101215.25
2017-09-05T21:22:41.936Z,101221.19
2017-09-05T21:25:10.350Z,101212.05
2017-09-05T21:27:38.740Z,101211.87
2017-09-05T21:30:07.192Z,101212.64
2017-09-05T21:32:35.673Z,101210.46
2017-09-05T21:35:04.097Z,101212.08
2017-09-05T21:37:32.680Z,101211.25
2017-09-05T21:40:01.179Z,101204.52
2017-09-05T21:42:31.024Z,101208.28
2017-09-05T21:44:59.765Z,101208.25
2017-09-05T21:47:28.157Z,101205.08
2017-09-05T21:49:56.653Z,101202.66
2017-09-05T21:52:25.238Z,101201.09
2017-09-05T21:54:53.643Z,101203.59
2017-09-05T21:57:22.110Z,101191.84
2017-09-05T21:59:50.524Z,101196.17
2017-09-05T22:02:18.944Z,101194.72
2017-09-05T22:04:47.347Z,101194.31
2017-09-05T22:07:15.742Z,101192.50
2017-09-05T22:09:44.204Z,101192.45
2017-09-05T22:12:12.699Z,101180.59
2017-09-05T22:14:46.729Z,101180.13
2017-09-05T22:17:19.011Z,101183.08
2017-09-05T22:19:53.003Z,101180.56
2017-09-05T22:22:21.440Z,101177.71
2017-09-05T22:24:55.449Z,101183.41
2017-09-05T22:30:34.982Z,101176.95
2017-09-05T22:33:03.555Z,101173.22
2017-09-05T22:35:31.970Z,101180.67
2017-09-05T22:38:00.364Z,101177.71
2017-09-05T22:40:29.543Z,101176.95
2017-09-05T22:42:57.981Z,101172.05
2017-09-05T22:45:26.476Z,101166.70
2017-09-05T22:47:54.930Z,101170.89
2017-09-05T22:50:23.510Z,101168.44
2017-09-05T22:52:51.893Z,101172.95
2017-09-05T22:55:20.310Z,101173.70
2017-09-05T22:57:48.821Z,101173.03
2017-09-05T23:00:17.214Z,101169.32
2017-09-05T23:02:45.649Z,101164.84
2017-09-05T23:05:14.036Z,101169.48
2017-09-05T23:07:42.473Z,101168.06
2017-09-05T23:10:10.981Z,101165.22
2017-09-05T23:12:39.481Z,101172.55
2017-09-05T23:15:07.852Z,101168.50
2017-09-05T23:17:36.274Z,101172.77
2017-09-05T23:20:05.436Z,101172.39
2017-09-05T23:22:33.837Z,101166.68
2017-09-05T23:25:02.302Z,101165.13
2017-09-05T23:27:30.720Z,101162.87
2017-09-05T23:29:59.109Z,101160.95
2017-09-05T23:32:27.721Z,101163.36
2017-09-05T23:34:56.201Z,101161.76
2017-09-05T23:37:24.674Z,101160.56
2017-09-05T23:39:53.119Z,101159.13
2017-09-05T23:42:21.523Z,101166.91
2017-09-05T23:44:49.974Z,101153.69
2017-09-05T23:47:18.402Z,101156.47
2017-09-05T23:49:46.877Z,101151.09
2017-09-05T23:52:15.330Z,101151.06
2017-09-05T23:54:43.715Z,101148.17
2017-09-05T23:57:12.116Z,101147.88
2017-09-05T23:59:40.550Z,101144.55
